Lyon-Bron Airport

Airport
ICAO code: 
LFLY
IATA Code: 
LYN
Summary
ICAO Region: 
EUR
Territory: 
Location: 
, Rhone-Alpes
Serving: 
Lyon
Elevation: 
659 ft
Coordinates: 
Aerial View: 
45° 43' 37.819" N, 4° 56' 39.39" E
Metar
Observation
LFLY 060530Z AUTO 35004KT 320V020 9999 -RA SCT010/// BKN016/// OVC021/// ///TCU 03/01 Q1014 TEMPO OVC009
Station
Lyon / Bron
Date/Time
2021-12-06 05:30:00
Wind direction
350°
Wind speed
04 kts
Lowest cloud amount
scattered clouds
Temperature
3°C
Dew point
1°C
Humidity
86%
QNH
1014 hPa
Weather condition
light rain

Runways

Designator Length Width Surface Rops
16/34 1820 45 ASP Yes/Yes
Airport map: 
Aerial View: 

SKYbrary Partners:

Safety knowledge contributed by: